• Join FlightAware (Why Join?)
  • Login
  • US Flag 
08:15PM EDT


 

Airport Tracker/Info


-or-


 

Live Flight TrackerFlight Track Log ✈ DAL3926 ✈ 08-Apr-2013 ✈ KMSP - KDLH

Flight Track Log - Related Links

Times and Time Zones

All times are in EDT time to prevent confusion due to time zone crossing. See the DAL3926 flight status page for this flight to view local times or setup timezone preferences in your user account.

Time Position Orientation Groundspeed Altitude Reporting Facility
EDT Latitude Longitude Course Direction KTS MPH feet Rate Location/Type
12:26PM 44.8750 -93.1758 112° Southeast 169 194 1,900  Level FAA TRACON SMA TRACON (SMA)
12:26PM 44.8689 -93.1550 112° Southeast 180 207 2,400 2,100 Climbing FAA TRACON SMA TRACON (SMA)
12:26PM 44.8608 -93.1258 111° Southeast 204 235 3,300 2,280 Climbing FAA TRACON SMA TRACON (SMA)
12:27PM 44.8753 -93.0814 65° Northeast 218 251 4,700 1,620 Climbing FAA TRACON SMA TRACON (SMA)
12:27PM 44.8969 -93.0622 32° Northeast 244 281 5,000 1,740 Climbing FAA TRACON SMA TRACON (SMA)
12:28PM 44.9194 -93.0569 North 261 300 5,900 2,760 Climbing FAA TRACON SMA TRACON (SMA)
12:28PM 44.9475 -93.0500 10° North 268 308 6,800 2,520 Climbing FAA TRACON SMA TRACON (SMA)
12:28PM 44.9708 -93.0436 11° North 275 316 7,600 2,700 Climbing FAA TRACON SMA TRACON (SMA)
12:29PM 44.9936 -93.0361 13° North 276 318 8,600 2,580 Climbing FAA TRACON SMA TRACON (SMA)
12:29PM 45.0228 -93.0272 12° North 277 319 9,400 2,100 Climbing FAA TRACON SMA TRACON (SMA)
12:29PM 45.0467 -93.0197 13° North 284 327 10,100 1,920 Climbing FAA TRACON SMA TRACON (SMA)
12:30PM 45.0717 -93.0117 13° North 296 341 10,700 1,980 Climbing FAA TRACON SMA TRACON (SMA)
12:30PM 45.1044 -93.0011 13° North 311 358 11,400 1,800 Climbing FAA TRACON SMA TRACON (SMA)
12:30PM 45.1317 -92.9919 13° North 322 371 11,900 900 Climbing FAA TRACON SMA TRACON (SMA)
12:31PM 45.1600 -92.9817 14° North 338 389 12,000 120 Climbing FAA TRACON SMA TRACON (SMA)
12:31PM 45.1956 -92.9653 18° North 349 402 12,000  Level FAA TRACON SMA TRACON (SMA)
12:31PM 45.2250 -92.9528 17° North 355 409 12,000  Level FAA TRACON SMA TRACON (SMA)
12:32PM 45.2539 -92.9397 18° North 357 411 12,000  Level FAA TRACON SMA TRACON (SMA)
12:32PM 45.2908 -92.9239 17° North 360 414 12,000  Level FAA TRACON SMA TRACON (SMA)
12:32PM 45.3200 -92.9094 19° North 361 415 12,000 -180 Level FAA TRACON SMA TRACON (SMA)
12:33PM 45.3497 -92.8975 16° North 360 414 11,900  Descending FAA TRACON SMA TRACON (SMA)
12:33PM 45.3933 -92.8781 17° North 356 410 12,000 120 Climbing FAA TRACON SMA TRACON (SMA)
12:33PM 45.4144 -92.8675 19° North 352 405 12,000  Level FAA TRACON SMA TRACON (SMA)
12:34PM 45.4503 -92.8517 17° North 350 403 12,000  Level FAA TRACON SMA TRACON (SMA)
12:34PM 45.4789 -92.8400 16° North 349 402 12,000 -180 Level FAA TRACON SMA TRACON (SMA)
12:34PM 45.5067 -92.8261 19° North 345 397 11,900  Descending FAA TRACON SMA TRACON (SMA)
12:35PM 45.5419 -92.8114 16° North 344 396 12,000 120 Climbing FAA TRACON SMA TRACON (SMA)
12:35PM 45.5694 -92.7975 19° North 340 391 12,000  Level FAA TRACON SMA TRACON (SMA)
12:35PM 45.5975 -92.7867 15° North 339 390 12,000  Level FAA TRACON SMA TRACON (SMA)
12:36PM 45.6250 -92.7731 19° North 338 389 12,000  Level FAA TRACON SMA TRACON (SMA)
12:36PM 45.6597 -92.7592 16° North 338 389 12,000  Level FAA TRACON SMA TRACON (SMA)
12:36PM 45.6869 -92.7467 18° North 336 387 12,000  Level FAA TRACON SMA TRACON (SMA)
12:37PM 45.7142 -92.7342 18° North 335 386 12,000  Level FAA TRACON SMA TRACON (SMA)
12:37PM 45.7486 -92.7197 16° North 335 386 12,000  Level FAA TRACON SMA TRACON (SMA)
12:37PM 45.7756 -92.7061 19° North 334 384 12,000  Level FAA TRACON SMA TRACON (SMA)
12:38PM 45.8031 -92.6944 16° North 334 384 12,000  Level FAA TRACON SMA TRACON (SMA)
12:39PM 45.8853 -92.6519 20° North 331 381 12,000  Level Minneapolis Center
12:40PM 45.9917 -92.6000 19° North 337 388 12,000  Level Minneapolis Center
12:41PM 46.0814 -92.5589 18° North 339 390 12,000  Level Minneapolis Center
12:42PM 46.1706 -92.5167 18° North 339 390 12,000  Level Minneapolis Center
12:43PM 46.2539 -92.4786 18° North 338 389 12,000  Level Minneapolis Center
12:44PM 46.3444 -92.4633 North 336 387 12,000 -540 Level Minneapolis Center
12:45PM 46.4503 -92.4903 350° North 327 376 10,900 -1,320 Descending Minneapolis Center
12:46PM 46.5300 -92.5128 349° North 303 349 9,400 -1,740 Descending Minneapolis Center
12:47PM 46.6056 -92.5361 348° North 286 329 7,400 -1,860 Descending Minneapolis Center
12:48PM 46.6772 -92.5639 345° North 278 320 5,600 -1,860 Descending Minneapolis Center
12:49PM 46.7469 -92.5906 345° North 269 310 3,700 -1,140 Descending Minneapolis Center
12:50PM 46.8069 -92.6008 353° North 255 293 3,300 -240 Descending Minneapolis Center
12:51PM 46.8394 -92.5331 55° Northeast 222 255 3,300  Level Minneapolis Center
12:52PM 46.8497 -92.4408 81° East 207 238 3,300  Level Minneapolis Center
12:53PM 46.8453 -92.3642 95° East 201 231 3,300 -360 Level Minneapolis Center
12:54PM 46.8442 -92.3014 91° East 180 207 2,600 -660 Descending Minneapolis Center
12:55PM 46.8431 -92.2328 91° East 154 177 1,900 -720 Descending Minneapolis Center
12:57PM 46.8421 -92.1936 70° East  Level Estimated